createdAt,value
2022-11-20T00:01:44.331Z,-4.56
2022-11-20T00:04:13.900Z,-4.69
2022-11-20T00:06:42.935Z,-4.66
2022-11-20T00:09:13.558Z,-4.52
2022-11-20T00:11:42.293Z,-4.60
2022-11-20T00:14:12.758Z,-4.78
2022-11-20T00:16:41.505Z,-4.88
2022-11-20T00:19:10.288Z,-4.93
2022-11-20T00:21:39.067Z,-4.77
2022-11-20T00:24:12.891Z,-4.67
2022-11-20T00:26:41.681Z,-4.77
2022-11-20T00:29:12.285Z,-4.81
2022-11-20T00:31:41.072Z,-4.68
2022-11-20T00:34:09.828Z,-4.82
2022-11-20T00:36:38.589Z,-4.96
2022-11-20T00:39:07.501Z,-4.95
2022-11-20T00:41:38.118Z,-4.96
2022-11-20T00:44:07.488Z,-4.80
2022-11-20T00:46:36.635Z,-4.94
2022-11-20T00:49:05.366Z,-5.05
2022-11-20T00:51:34.135Z,-5.03
2022-11-20T00:54:03.196Z,-4.99
2022-11-20T00:56:31.947Z,-4.92
2022-11-20T00:59:03.179Z,-4.85
2022-11-20T01:01:32.481Z,-4.86
2022-11-20T01:04:02.872Z,-4.76
2022-11-20T01:06:34.531Z,-4.85
2022-11-20T01:09:08.301Z,-4.95
2022-11-20T01:11:39.873Z,-5.00
2022-11-20T01:14:14.613Z,-5.09
2022-11-20T01:16:46.318Z,-5.12
2022-11-20T01:19:18.953Z,-5.01
2022-11-20T01:21:50.964Z,-5.16
2022-11-20T01:24:23.197Z,-5.19
2022-11-20T01:26:53.601Z,-5.13
2022-11-20T01:29:26.503Z,-5.08
2022-11-20T01:31:56.417Z,-5.16
2022-11-20T01:34:26.047Z,-5.01
2022-11-20T01:36:55.841Z,-4.97
2022-11-20T01:39:28.340Z,-4.90
2022-11-20T01:42:15.533Z,-5.06
2022-11-20T01:44:56.336Z,-5.20
2022-11-20T01:47:34.419Z,-5.16
2022-11-20T01:50:13.945Z,-5.07
2022-11-20T01:52:51.789Z,-5.07
2022-11-20T01:55:27.888Z,-5.06
2022-11-20T01:57:58.194Z,-5.22
2022-11-20T02:00:28.448Z,-5.26
2022-11-20T02:03:00.875Z,-5.21
2022-11-20T02:05:39.305Z,-5.13
2022-11-20T02:08:09.039Z,-5.07
2022-11-20T02:10:38.110Z,-5.18
2022-11-20T02:13:25.067Z,-5.27
2022-11-20T02:15:55.877Z,-5.30
2022-11-20T02:18:26.144Z,-5.36
2022-11-20T02:21:04.267Z,-5.28
2022-11-20T02:23:41.180Z,-5.33
2022-11-20T02:26:16.607Z,-5.22
2022-11-20T02:28:45.291Z,-5.09
2022-11-20T02:31:14.057Z,-5.11
2022-11-20T02:33:42.725Z,-5.31
2022-11-20T02:36:18.497Z,-5.25
2022-11-20T02:38:47.569Z,-5.20
2022-11-20T02:41:17.686Z,-5.07
2022-11-20T02:43:46.870Z,-4.99
2022-11-20T02:46:15.862Z,-4.94
2022-11-20T02:48:44.551Z,-5.02
2022-11-20T02:51:13.278Z,-5.02
2022-11-20T02:53:42.197Z,-4.96
2022-11-20T02:56:10.918Z,-5.12
2022-11-20T02:58:41.029Z,-5.21
2022-11-20T03:01:09.956Z,-5.23
2022-11-20T03:03:38.794Z,-5.25
2022-11-20T03:06:08.748Z,-5.49
2022-11-20T03:08:37.851Z,-5.36
2022-11-20T03:11:09.098Z,-5.21
2022-11-20T03:13:38.296Z,-5.24
2022-11-20T03:16:24.520Z,-5.36
2022-11-20T03:18:55.573Z,-5.27
2022-11-20T03:21:24.395Z,-5.32
2022-11-20T03:23:53.072Z,-5.27
2022-11-20T03:26:24.308Z,-5.28
2022-11-20T03:28:56.011Z,-5.48
2022-11-20T03:31:29.554Z,-5.39
2022-11-20T03:34:00.218Z,-5.33
2022-11-20T03:36:30.152Z,-5.40
2022-11-20T03:38:59.805Z,-5.35
2022-11-20T03:41:31.169Z,-5.51
2022-11-20T03:44:03.558Z,-5.50
2022-11-20T03:46:34.254Z,-5.56
2022-11-20T03:49:03.472Z,-5.57
2022-11-20T03:51:34.671Z,-5.55
2022-11-20T03:54:05.928Z,-5.59
2022-11-20T03:56:37.815Z,-5.72
2022-11-20T03:59:07.534Z,-5.56
2022-11-20T04:01:39.180Z,-5.63
2022-11-20T04:04:08.124Z,-5.61
2022-11-20T04:06:39.896Z,-5.58
2022-11-20T04:09:09.323Z,-5.69
2022-11-20T04:11:41.994Z,-5.64
2022-11-20T04:14:17.688Z,-5.69
2022-11-20T04:16:47.788Z,-5.64
2022-11-20T04:19:19.034Z,-5.57
2022-11-20T04:21:48.183Z,-5.64
2022-11-20T04:24:16.983Z,-5.72
2022-11-20T04:26:45.715Z,-5.90
2022-11-20T04:29:14.984Z,-5.92
2022-11-20T04:31:43.758Z,-5.89
2022-11-20T04:34:14.985Z,-5.76
2022-11-20T04:36:43.693Z,-5.80
2022-11-20T04:39:17.937Z,-5.82
2022-11-20T04:41:47.196Z,-5.79
2022-11-20T04:44:16.047Z,-5.71
2022-11-20T04:46:45.329Z,-5.66
2022-11-20T04:49:15.953Z,-5.78
2022-11-20T04:51:44.807Z,-5.85
2022-11-20T04:54:14.689Z,-5.87
2022-11-20T04:56:44.138Z,-5.91
2022-11-20T04:59:13.661Z,-5.80
2022-11-20T05:01:42.889Z,-5.83
2022-11-20T05:04:11.678Z,-6.03
2022-11-20T05:06:41.802Z,-5.91
2022-11-20T05:09:10.696Z,-5.91
2022-11-20T05:11:39.589Z,-5.80
2022-11-20T05:14:08.418Z,-5.89
2022-11-20T05:16:37.776Z,-5.93
2022-11-20T05:19:06.536Z,-5.91
2022-11-20T05:21:35.270Z,-5.90
2022-11-20T05:24:07.062Z,-5.88
2022-11-20T05:26:37.123Z,-5.85
2022-11-20T05:29:05.828Z,-5.83
2022-11-20T05:31:34.829Z,-5.92
2022-11-20T05:34:04.425Z,-6.03
2022-11-20T05:36:33.859Z,-6.18
2022-11-20T05:39:04.529Z,-6.21
2022-11-20T05:41:35.073Z,-6.12
2022-11-20T05:44:04.241Z,-6.08
2022-11-20T05:46:33.152Z,-5.96
2022-11-20T05:49:02.214Z,-6.00
2022-11-20T05:51:31.163Z,-6.07
2022-11-20T05:54:00.334Z,-6.19
2022-11-20T05:56:30.796Z,-6.18
2022-11-20T05:58:59.568Z,-6.06
2022-11-20T06:01:28.750Z,-6.03
2022-11-20T06:03:57.568Z,-5.93
2022-11-20T06:06:27.026Z,-6.01
2022-11-20T06:08:56.742Z,-6.00
2022-11-20T06:11:25.436Z,-5.96
2022-11-20T06:13:55.592Z,-5.86
2022-11-20T06:16:24.797Z,-5.79
2022-11-20T06:18:53.645Z,-5.78
2022-11-20T06:21:24.984Z,-5.88
2022-11-20T06:23:55.898Z,-6.08
2022-11-20T06:26:28.641Z,-6.16
2022-11-20T06:28:59.698Z,-6.14
2022-11-20T06:31:30.575Z,-6.09
2022-11-20T06:33:59.837Z,-6.15
2022-11-20T06:36:29.185Z,-6.14
2022-11-20T06:38:59.024Z,-6.17
2022-11-20T06:41:30.081Z,-6.02
2022-11-20T06:44:00.722Z,-5.90
2022-11-20T06:46:29.658Z,-5.86
2022-11-20T06:48:59.358Z,-5.77
2022-11-20T06:51:28.168Z,-5.94
2022-11-20T06:53:57.077Z,-6.06
2022-11-20T06:56:25.973Z,-6.16
2022-11-20T06:58:54.681Z,-6.07
2022-11-20T07:01:25.466Z,-6.04
2022-11-20T07:03:54.724Z,-5.95
2022-11-20T07:06:23.848Z,-6.05
2022-11-20T07:08:54.448Z,-5.99
2022-11-20T07:11:23.239Z,-5.85
2022-11-20T07:13:52.219Z,-5.72
2022-11-20T07:16:21.019Z,-5.62
2022-11-20T07:18:51.393Z,-5.53
2022-11-20T07:21:22.136Z,-5.51
2022-11-20T07:23:51.048Z,-5.49
2022-11-20T07:26:20.433Z,-5.43
2022-11-20T07:28:49.180Z,-5.38
2022-11-20T07:31:19.665Z,-5.32
2022-11-20T07:33:51.035Z,-5.28
2022-11-20T07:36:23.079Z,-5.25
2022-11-20T07:38:53.678Z,-5.22
2022-11-20T07:41:22.921Z,-5.20
2022-11-20T07:43:52.404Z,-5.23
2022-11-20T07:46:22.298Z,-5.24
2022-11-20T07:48:52.453Z,-5.22
2022-11-20T07:51:21.280Z,-5.25
2022-11-20T07:53:52.543Z,-5.27
2022-11-20T07:56:21.373Z,-5.17
2022-11-20T07:58:50.142Z,-5.12
2022-11-20T08:01:18.878Z,-5.06
2022-11-20T08:03:48.093Z,-5.01
2022-11-20T08:06:19.636Z,-4.96
2022-11-20T08:08:49.152Z,-4.93
2022-11-20T08:11:35.949Z,-4.91
2022-11-20T08:14:16.917Z,-4.89
2022-11-20T08:16:48.113Z,-4.93
2022-11-20T08:19:20.827Z,-5.01
2022-11-20T08:21:51.413Z,-5.07
2022-11-20T08:24:20.214Z,-4.97
2022-11-20T08:26:49.171Z,-4.90
2022-11-20T08:29:18.090Z,-4.81
2022-11-20T08:31:47.907Z,-4.72
2022-11-20T08:34:19.149Z,-4.64
2022-11-20T08:36:48.413Z,-4.60
2022-11-20T08:39:18.882Z,-4.52
2022-11-20T08:41:47.692Z,-4.49
2022-11-20T08:44:16.882Z,-4.47
2022-11-20T08:46:46.836Z,-4.42
2022-11-20T08:49:16.964Z,-4.38
2022-11-20T08:51:46.117Z,-4.30
2022-11-20T08:54:16.724Z,-4.25
2022-11-20T08:56:47.067Z,-4.21
2022-11-20T08:59:43.473Z,-4.18
2022-11-20T09:02:05.165Z,-4.14
2022-11-20T09:04:34.025Z,-4.14
2022-11-20T09:07:03.416Z,-4.08
2022-11-20T09:09:32.183Z,-4.01
2022-11-20T09:12:02.614Z,-3.97
2022-11-20T09:14:31.464Z,-3.92
2022-11-20T09:17:00.303Z,-3.87
2022-11-20T09:19:36.713Z,-3.82
2022-11-20T09:22:05.646Z,-3.73
2022-11-20T09:24:34.930Z,-3.73
2022-11-20T09:27:08.555Z,-3.66
2022-11-20T09:29:37.387Z,-3.65
2022-11-20T09:32:07.096Z,-3.61
2022-11-20T09:34:35.832Z,-3.58
2022-11-20T09:37:07.610Z,-3.51
2022-11-20T09:39:40.017Z,-3.45
2022-11-20T09:42:34.627Z,-3.40
2022-11-20T09:45:21.017Z,-3.40
2022-11-20T09:48:08.079Z,-3.34
2022-11-20T09:50:48.862Z,-3.28
2022-11-20T09:53:30.533Z,-3.22
2022-11-20T09:56:02.140Z,-3.15
2022-11-20T09:58:41.374Z,-3.11
2022-11-20T10:01:16.379Z,-3.01
2022-11-20T10:03:58.272Z,-2.93
2022-11-20T10:06:34.913Z,-2.84
2022-11-20T10:09:21.414Z,-2.78
2022-11-20T10:12:07.792Z,-2.72
2022-11-20T10:14:56.261Z,-2.57
2022-11-20T10:17:54.392Z,-2.45
2022-11-20T10:20:38.284Z,-2.33
2022-11-20T10:23:36.001Z,-2.20
2022-11-20T10:26:18.695Z,-2.09
2022-11-20T10:29:12.761Z,-1.99
2022-11-20T10:31:46.815Z,-1.83
2022-11-20T10:34:25.079Z,-1.67
2022-11-20T10:37:04.774Z,-1.49
2022-11-20T10:39:44.986Z,-1.40
2022-11-20T10:42:21.898Z,-1.25
2022-11-20T10:45:06.155Z,-1.13
2022-11-20T10:47:37.878Z,-1.06
2022-11-20T10:50:16.468Z,-0.92
2022-11-20T10:53:01.457Z,-0.81
2022-11-20T10:55:43.308Z,-0.72
2022-11-20T10:58:24.768Z,-0.64
2022-11-20T11:00:53.501Z,-0.68
2022-11-20T11:03:31.467Z,-0.56
2022-11-20T11:06:11.523Z,-0.46
2022-11-20T11:08:42.292Z,-0.39
2022-11-20T11:11:25.436Z,-0.31
2022-11-20T11:13:55.383Z,-0.15
2022-11-20T11:16:28.416Z,-0.10
2022-11-20T11:19:09.632Z,0.04
2022-11-20T11:21:42.743Z,-0.07
2022-11-20T11:24:41.587Z,-0.07
2022-11-20T11:27:18.944Z,-0.17
2022-11-20T11:29:48.996Z,-0.08
2022-11-20T11:32:23.161Z,-0.01
2022-11-20T11:35:05.613Z,-0.11
2022-11-20T11:37:41.231Z,-0.15
2022-11-20T11:40:29.831Z,-0.17
2022-11-20T11:43:04.511Z,-0.22
2022-11-20T11:45:34.597Z,-0.30
2022-11-20T11:48:12.741Z,-0.25
2022-11-20T11:50:52.995Z,-0.08
2022-11-20T11:53:27.158Z,-0.03
2022-11-20T11:56:06.320Z,0.05
2022-11-20T11:58:46.984Z,0.04
2022-11-20T12:01:34.304Z,0.03
2022-11-20T12:04:16.085Z,-0.01
2022-11-20T12:06:54.209Z,0.05
2022-11-20T12:09:37.031Z,0.09
2022-11-20T12:12:12.951Z,0.16
2022-11-20T12:14:45.241Z,0.19
2022-11-20T12:17:16.279Z,0.32
2022-11-20T12:19:45.220Z,0.29
2022-11-20T12:22:31.577Z,0.36
2022-11-20T12:25:10.274Z,0.46
2022-11-20T12:28:26.500Z,0.44
2022-11-20T12:31:29.850Z,0.52
2022-11-20T12:34:26.412Z,0.45
2022-11-20T12:37:07.711Z,0.45
2022-11-20T12:39:50.963Z,0.30
2022-11-20T12:43:10.905Z,0.17
2022-11-20T12:46:11.000Z,0.16
2022-11-20T12:49:04.810Z,0.24
2022-11-20T12:51:54.071Z,0.22
2022-11-20T12:54:57.099Z,0.18
2022-11-20T12:57:40.104Z,0.23
2022-11-20T13:00:17.853Z,0.22
2022-11-20T13:03:24.382Z,0.28
2022-11-20T13:06:14.425Z,0.42
2022-11-20T13:08:49.543Z,0.47
2022-11-20T13:11:31.059Z,0.44
2022-11-20T13:14:26.918Z,0.53
2022-11-20T13:17:07.689Z,0.48
2022-11-20T13:19:37.365Z,0.54
2022-11-20T13:22:06.149Z,0.52
2022-11-20T13:24:36.109Z,0.51
2022-11-20T13:27:24.176Z,0.45
2022-11-20T13:30:18.180Z,0.43
2022-11-20T13:32:57.118Z,0.41
2022-11-20T13:35:34.198Z,0.46
2022-11-20T13:38:07.706Z,0.46
2022-11-20T13:40:40.216Z,0.44
2022-11-20T13:43:25.502Z,0.39
2022-11-20T13:46:00.585Z,0.41
2022-11-20T13:48:34.554Z,0.38
2022-11-20T13:51:26.581Z,0.31
2022-11-20T13:54:40.286Z,0.31
2022-11-20T13:57:36.007Z,0.32
2022-11-20T14:00:16.915Z,0.33
2022-11-20T14:02:49.043Z,0.31
2022-11-20T14:05:24.698Z,0.23
2022-11-20T14:07:56.212Z,0.22
2022-11-20T14:10:32.095Z,0.23
2022-11-20T14:13:12.239Z,0.15
2022-11-20T14:15:45.291Z,0.22
2022-11-20T14:18:21.291Z,0.23
2022-11-20T14:20:50.570Z,0.20
2022-11-20T14:23:30.213Z,0.24
2022-11-20T14:25:59.820Z,0.21
2022-11-20T14:28:33.221Z,0.17
2022-11-20T14:31:03.881Z,0.03
2022-11-20T14:33:37.277Z,0.06
2022-11-20T14:36:06.792Z,0.10
2022-11-20T14:38:36.853Z,0.04
2022-11-20T14:41:11.709Z,0.08
2022-11-20T14:43:41.488Z,0.07
2022-11-20T14:46:14.693Z,0.05
2022-11-20T14:48:49.248Z,0.07
2022-11-20T14:51:36.290Z,0.03
2022-11-20T14:54:13.495Z,0.05
2022-11-20T14:56:43.037Z,0.03
2022-11-20T14:59:12.286Z,0.01
2022-11-20T15:01:56.175Z,0.00
2022-11-20T15:04:25.995Z,0.01
2022-11-20T15:06:58.433Z,-0.09
2022-11-20T15:09:28.489Z,-0.08
2022-11-20T15:12:01.168Z,-0.14
2022-11-20T15:14:36.510Z,-0.11
2022-11-20T15:17:14.310Z,-0.16
2022-11-20T15:19:43.319Z,-0.25
2022-11-20T15:22:17.189Z,-0.20
2022-11-20T15:24:46.002Z,-0.25
2022-11-20T15:27:14.991Z,-0.34
2022-11-20T15:29:44.948Z,-0.39
2022-11-20T15:32:15.187Z,-0.43
2022-11-20T15:34:44.839Z,-0.42
2022-11-20T15:37:14.645Z,-0.48
2022-11-20T15:39:43.642Z,-0.50
2022-11-20T15:42:13.210Z,-0.50
2022-11-20T15:44:43.028Z,-0.62
2022-11-20T15:47:12.766Z,-0.65
2022-11-20T15:49:43.201Z,-0.63
2022-11-20T15:52:14.096Z,-0.63
2022-11-20T15:54:43.513Z,-0.72
2022-11-20T15:57:14.458Z,-0.75
2022-11-20T15:59:43.515Z,-0.74
2022-11-20T16:02:18.908Z,-0.75
2022-11-20T16:04:49.636Z,-0.89
2022-11-20T16:07:19.205Z,-0.87
2022-11-20T16:09:49.543Z,-0.86
2022-11-20T16:12:33.064Z,-0.90
2022-11-20T16:15:30.710Z,-0.92
2022-11-20T16:18:00.972Z,-0.91
2022-11-20T16:20:31.800Z,-0.92
2022-11-20T16:23:01.158Z,-0.95
2022-11-20T16:25:30.347Z,-0.96
2022-11-20T16:28:00.676Z,-1.00
2022-11-20T16:30:29.745Z,-1.05
2022-11-20T16:32:58.605Z,-1.13
2022-11-20T16:35:30.950Z,-1.07
2022-11-20T16:38:01.784Z,-1.08
2022-11-20T16:40:31.841Z,-1.11
2022-11-20T16:43:12.268Z,-1.10
2022-11-20T16:45:45.298Z,-1.14
2022-11-20T16:48:18.394Z,-1.22
2022-11-20T16:50:55.209Z,-1.19
2022-11-20T16:53:24.434Z,-1.21
2022-11-20T16:55:53.315Z,-1.22
2022-11-20T16:58:23.071Z,-1.22
2022-11-20T17:00:52.125Z,-1.32
2022-11-20T17:03:24.191Z,-1.38
2022-11-20T17:05:54.420Z,-1.41
2022-11-20T17:08:23.205Z,-1.38
2022-11-20T17:10:51.990Z,-1.35
2022-11-20T17:13:20.747Z,-1.35
2022-11-20T17:15:49.953Z,-1.44
2022-11-20T17:18:18.768Z,-1.41
2022-11-20T17:20:54.957Z,-1.50
2022-11-20T17:23:23.679Z,-1.46
2022-11-20T17:25:52.345Z,-1.51
2022-11-20T17:28:21.034Z,-1.49
2022-11-20T17:30:49.710Z,-1.62
2022-11-20T17:33:18.434Z,-1.60
2022-11-20T17:35:47.214Z,-1.64
2022-11-20T17:38:17.321Z,-1.71
2022-11-20T17:40:46.423Z,-1.65
2022-11-20T17:43:15.254Z,-1.74
2022-11-20T17:45:45.034Z,-1.67
2022-11-20T17:48:13.947Z,-1.70
2022-11-20T17:50:42.750Z,-1.71
2022-11-20T17:53:11.467Z,-1.69
2022-11-20T17:55:58.884Z,-1.70
2022-11-20T17:58:29.385Z,-1.68
2022-11-20T18:01:05.202Z,-1.76
2022-11-20T18:03:33.946Z,-1.80
2022-11-20T18:06:11.711Z,-1.76
2022-11-20T18:08:41.224Z,-1.78
2022-11-20T18:11:18.329Z,-1.78
2022-11-20T18:14:07.268Z,-1.98
2022-11-20T18:16:39.484Z,-2.06
2022-11-20T18:19:08.246Z,-2.03
2022-11-20T18:21:37.140Z,-2.01
2022-11-20T18:24:07.218Z,-2.09
2022-11-20T18:26:42.782Z,-2.09
2022-11-20T18:29:15.355Z,-2.08
2022-11-20T18:31:44.333Z,-2.03
2022-11-20T18:34:14.284Z,-2.10
2022-11-20T18:36:45.699Z,-2.03
2022-11-20T18:39:16.418Z,-2.16
2022-11-20T18:42:05.249Z,-2.17
2022-11-20T18:44:55.719Z,-2.14
2022-11-20T18:47:29.769Z,-2.18
2022-11-20T18:50:01.613Z,-2.27
2022-11-20T18:52:35.335Z,-2.30
2022-11-20T18:55:07.433Z,-2.37
2022-11-20T18:57:39.025Z,-2.35
2022-11-20T19:00:10.364Z,-2.40
2022-11-20T19:02:42.497Z,-2.45
2022-11-20T19:05:12.774Z,-2.44
2022-11-20T19:07:42.510Z,-2.41
2022-11-20T19:10:11.984Z,-2.40
2022-11-20T19:12:43.315Z,-2.45
2022-11-20T19:15:12.744Z,-2.40
2022-11-20T19:17:41.899Z,-2.33
2022-11-20T19:20:12.071Z,-2.35
2022-11-20T19:22:40.754Z,-2.52
2022-11-20T19:25:10.869Z,-2.56
2022-11-20T19:27:39.845Z,-2.56
2022-11-20T19:30:12.277Z,-2.59
2022-11-20T19:32:42.217Z,-2.57
2022-11-20T19:35:11.211Z,-2.53
2022-11-20T19:37:40.294Z,-2.46
2022-11-20T19:40:10.451Z,-2.62
2022-11-20T19:42:39.606Z,-2.59
2022-11-20T19:45:11.242Z,-2.64
2022-11-20T19:50:29.460Z,-2.62
2022-11-20T19:52:59.031Z,-2.53
2022-11-20T19:55:28.408Z,-2.53
2022-11-20T19:57:58.299Z,-2.39
2022-11-20T20:00:32.785Z,-2.45
2022-11-20T20:03:02.574Z,-2.40
2022-11-20T20:05:32.624Z,-2.44
2022-11-20T20:08:01.436Z,-2.33
2022-11-20T20:10:30.504Z,-2.26
2022-11-20T20:12:59.674Z,-2.14
2022-11-20T20:15:30.279Z,-2.23
2022-11-20T20:17:59.493Z,-2.17
2022-11-20T20:20:28.872Z,-2.07
2022-11-20T20:22:57.850Z,-2.03
2022-11-20T20:25:26.833Z,-1.98
2022-11-20T20:27:55.520Z,-2.03
2022-11-20T20:30:24.902Z,-1.99
2022-11-20T20:32:56.535Z,-2.03
2022-11-20T20:35:25.628Z,-1.96
2022-11-20T20:37:54.503Z,-1.84
2022-11-20T20:40:23.405Z,-1.77
2022-11-20T20:42:52.177Z,-1.72
2022-11-20T20:45:20.958Z,-1.73
2022-11-20T20:47:49.791Z,-1.80
2022-11-20T20:50:20.163Z,-1.79
2022-11-20T20:52:49.319Z,-1.73
2022-11-20T20:55:18.334Z,-1.72
2022-11-20T20:57:47.241Z,-1.67
2022-11-20T21:00:17.471Z,-1.63
2022-11-20T21:02:46.156Z,-1.69
2022-11-20T21:05:15.054Z,-1.75
2022-11-20T21:07:59.043Z,-1.75
2022-11-20T21:10:28.240Z,-1.70
2022-11-20T21:12:57.128Z,-1.64
2022-11-20T21:15:26.989Z,-1.61
2022-11-20T21:17:55.737Z,-1.58
2022-11-20T21:20:41.949Z,-1.52
2022-11-20T21:23:12.724Z,-1.57
2022-11-20T21:25:43.713Z,-1.50
2022-11-20T21:28:17.854Z,-1.51
2022-11-20T21:30:50.088Z,-1.42
2022-11-20T21:33:18.789Z,-1.40
2022-11-20T21:35:47.527Z,-1.41
2022-11-20T21:38:17.634Z,-1.45
2022-11-20T21:40:46.699Z,-1.46
2022-11-20T21:43:15.851Z,-1.44
2022-11-20T21:45:44.613Z,-1.32
2022-11-20T21:48:13.331Z,-1.25
2022-11-20T21:50:42.166Z,-1.23
2022-11-20T21:53:10.920Z,-1.17
2022-11-20T21:55:41.027Z,-1.13
2022-11-20T21:58:09.770Z,-1.08
2022-11-20T22:00:38.490Z,-1.03
2022-11-20T22:03:07.319Z,-1.04
2022-11-20T22:05:36.064Z,-1.07
2022-11-20T22:08:04.972Z,-1.06
2022-11-20T22:10:33.720Z,-1.04
2022-11-20T22:13:17.704Z,-1.02
2022-11-20T22:16:00.460Z,-1.05
2022-11-20T22:18:29.854Z,-0.99
2022-11-20T22:20:58.735Z,-0.95
2022-11-20T22:23:27.467Z,-0.89
2022-11-20T22:25:56.182Z,-0.86
2022-11-20T22:28:26.411Z,-0.95
2022-11-20T22:30:59.043Z,-0.95
2022-11-20T22:33:29.295Z,-0.92
2022-11-20T22:36:10.364Z,-0.84
2022-11-20T22:38:40.565Z,-0.86
2022-11-20T22:41:11.930Z,-0.83
2022-11-20T22:43:43.637Z,-0.76
2022-11-20T22:46:14.516Z,-0.72
2022-11-20T22:48:45.640Z,-0.70
2022-11-20T22:51:16.810Z,-0.68
2022-11-20T22:53:46.235Z,-0.70
2022-11-20T22:56:16.708Z,-0.73
2022-11-20T22:58:49.461Z,-0.70
2022-11-20T23:01:20.283Z,-0.74
2022-11-20T23:03:51.486Z,-0.68
2022-11-20T23:06:22.723Z,-0.63
2022-11-20T23:08:52.504Z,-0.60
2022-11-20T23:11:24.576Z,-0.56
2022-11-20T23:13:58.295Z,-0.54
2022-11-20T23:16:29.259Z,-0.49
2022-11-20T23:19:00.098Z,-0.47
2022-11-20T23:21:29.822Z,-0.46
2022-11-20T23:24:00.950Z,-0.46
2022-11-20T23:26:31.839Z,-0.45
2022-11-20T23:29:02.762Z,-0.41
2022-11-20T23:31:33.704Z,-0.42
2022-11-20T23:34:02.861Z,-0.40
2022-11-20T23:36:32.132Z,-0.36
2022-11-20T23:39:00.966Z,-0.36
2022-11-20T23:41:29.718Z,-0.32
2022-11-20T23:43:58.492Z,-0.31
2022-11-20T23:46:28.681Z,-0.38
2022-11-20T23:48:57.504Z,-0.33
2022-11-20T23:51:26.314Z,-0.29
2022-11-20T23:53:54.993Z,-0.27
2022-11-20T23:56:23.807Z,-0.22
2022-11-20T23:58:52.628Z,-0.22
